createdAt,value
2023-01-19T00:00:18.097Z,98917.00
2023-01-19T00:02:51.722Z,98930.00
2023-01-19T00:05:26.888Z,98924.00
2023-01-19T00:08:14.735Z,98926.00
2023-01-19T00:10:51.380Z,98910.00
2023-01-19T00:13:25.073Z,98920.00
2023-01-19T00:15:59.043Z,98922.00
2023-01-19T00:18:32.508Z,98922.00
2023-01-19T00:21:08.136Z,98932.00
2023-01-19T00:23:42.758Z,98928.00
2023-01-19T00:26:17.635Z,98923.00
2023-01-19T00:28:51.726Z,98927.00
2023-01-19T00:31:25.263Z,98922.00
2023-01-19T00:33:58.924Z,98936.00
2023-01-19T00:36:34.659Z,98932.00
2023-01-19T00:39:08.395Z,98912.00
2023-01-19T00:41:59.371Z,98931.00
2023-01-19T00:44:33.246Z,98945.00
2023-01-19T00:47:06.868Z,98947.00
2023-01-19T00:49:41.395Z,98948.00
2023-01-19T00:52:16.779Z,98938.00
2023-01-19T00:54:50.545Z,98937.00
2023-01-19T00:57:24.324Z,98935.00
2023-01-19T00:59:58.326Z,98935.00
2023-01-19T01:02:31.938Z,98934.00
2023-01-19T01:05:06.150Z,98936.00
2023-01-19T01:07:41.786Z,98941.00
2023-01-19T01:10:18.740Z,98941.00
2023-01-19T01:12:56.373Z,98932.00
2023-01-19T01:15:31.930Z,98926.00
2023-01-19T01:18:05.920Z,98927.00
2023-01-19T01:20:39.228Z,98949.00
2023-01-19T01:23:14.508Z,98945.00
2023-01-19T01:25:47.947Z,98930.00
2023-01-19T01:28:21.576Z,98930.00
2023-01-19T01:30:55.697Z,98926.00
2023-01-19T01:33:40.593Z,98947.00
2023-01-19T01:36:15.234Z,98938.00
2023-01-19T01:38:50.979Z,98945.00
2023-01-19T01:41:26.109Z,98941.00
2023-01-19T01:44:02.078Z,98940.00
2023-01-19T01:46:35.816Z,98942.00
2023-01-19T01:49:17.020Z,98952.00
2023-01-19T01:51:54.503Z,98942.00
2023-01-19T01:54:35.153Z,98949.00
2023-01-19T01:57:12.580Z,98940.00
2023-01-19T01:59:50.735Z,98951.00
2023-01-19T02:02:46.560Z,98949.00
2023-01-19T02:05:28.020Z,98946.00
2023-01-19T02:08:23.515Z,98949.00
2023-01-19T02:11:17.005Z,98945.00
2023-01-19T02:13:51.111Z,98942.00
2023-01-19T02:16:24.809Z,98944.00
2023-01-19T02:19:01.444Z,98941.00
2023-01-19T02:21:47.971Z,98932.00
2023-01-19T02:24:23.857Z,98938.00
2023-01-19T02:26:58.801Z,98945.00
2023-01-19T02:29:33.936Z,98942.00
2023-01-19T02:32:07.796Z,98936.00
2023-01-19T02:34:41.665Z,98927.00
2023-01-19T02:37:18.505Z,98927.00
2023-01-19T02:39:58.070Z,98932.00
2023-01-19T02:42:38.547Z,98934.00
2023-01-19T02:45:14.809Z,98930.00
2023-01-19T02:47:51.333Z,98930.00
2023-01-19T02:50:46.407Z,98935.00
2023-01-19T02:54:12.521Z,98929.00
2023-01-19T02:57:23.540Z,98931.00
2023-01-19T03:00:16.652Z,98918.00
2023-01-19T03:03:13.286Z,98924.00
2023-01-19T03:06:04.185Z,98918.00
2023-01-19T03:08:53.014Z,98919.00
2023-01-19T03:11:35.143Z,98912.00
2023-01-19T03:14:15.802Z,98916.00
2023-01-19T03:16:55.196Z,98912.00
2023-01-19T03:19:35.772Z,98909.00
2023-01-19T03:22:14.647Z,98922.00
2023-01-19T03:24:49.495Z,98918.00
2023-01-19T03:27:28.407Z,98915.00
2023-01-19T03:30:10.862Z,98923.00
2023-01-19T03:32:53.152Z,98914.00
2023-01-19T03:35:32.278Z,98914.00
2023-01-19T03:38:13.967Z,98912.00
2023-01-19T03:40:48.978Z,98913.00
2023-01-19T03:43:24.829Z,98914.00
2023-01-19T03:46:00.760Z,98910.00
2023-01-19T03:48:35.125Z,98918.00
2023-01-19T03:51:11.768Z,98921.00
2023-01-19T03:53:45.159Z,98925.00
2023-01-19T03:56:24.351Z,98921.00
2023-01-19T03:58:58.126Z,98923.00
2023-01-19T04:01:33.520Z,98930.00
2023-01-19T04:04:06.980Z,98930.00
2023-01-19T04:06:40.785Z,98911.00
2023-01-19T04:09:14.332Z,98917.00
2023-01-19T04:11:48.082Z,98925.00
2023-01-19T04:14:21.848Z,98915.00
2023-01-19T04:16:56.829Z,98900.00
2023-01-19T04:19:30.181Z,98906.00
2023-01-19T04:22:04.937Z,98907.00
2023-01-19T04:24:38.861Z,98912.00
2023-01-19T04:27:13.019Z,98927.00
2023-01-19T04:29:46.644Z,98922.00
2023-01-19T04:32:21.973Z,98914.00
2023-01-19T04:34:55.460Z,98919.00
2023-01-19T04:37:28.998Z,98923.00
2023-01-19T04:40:02.597Z,98918.00
2023-01-19T04:42:36.031Z,98908.00
2023-01-19T04:45:11.419Z,98909.00
2023-01-19T04:47:46.638Z,98909.00
2023-01-19T04:50:20.646Z,98909.00
2023-01-19T04:52:53.980Z,98910.00
2023-01-19T04:55:27.850Z,98909.00
2023-01-19T04:58:01.297Z,98910.00
2023-01-19T05:00:35.810Z,98910.00
2023-01-19T05:03:11.100Z,98917.00
2023-01-19T05:05:44.752Z,98904.00
2023-01-19T05:08:18.276Z,98901.00
2023-01-19T05:10:51.984Z,98903.00
2023-01-19T05:13:25.853Z,98912.00
2023-01-19T05:15:59.747Z,98915.00
2023-01-19T05:18:37.223Z,98915.00
2023-01-19T05:21:10.821Z,98914.00
2023-01-19T05:23:44.735Z,98928.00
2023-01-19T05:26:18.151Z,98935.00
2023-01-19T05:28:52.136Z,98932.00
2023-01-19T05:31:25.827Z,98937.00
2023-01-19T05:34:00.784Z,98934.00
2023-01-19T05:36:34.534Z,98933.00
2023-01-19T05:39:08.658Z,98945.00
2023-01-19T05:41:44.765Z,98937.00
2023-01-19T05:44:18.042Z,98935.00
2023-01-19T05:46:51.556Z,98948.00
2023-01-19T05:49:26.493Z,98950.00
2023-01-19T05:52:00.124Z,98925.00
2023-01-19T05:54:35.496Z,98928.00
2023-01-19T05:57:09.455Z,98935.00
2023-01-19T05:59:43.230Z,98932.00
2023-01-19T06:02:17.087Z,98945.00
2023-01-19T06:04:52.346Z,98945.00
2023-01-19T06:07:28.289Z,98953.00
2023-01-19T06:10:02.794Z,98954.00
2023-01-19T06:12:36.582Z,98950.00
2023-01-19T06:15:11.206Z,98954.00
2023-01-19T06:17:44.688Z,98964.00
2023-01-19T06:20:20.507Z,98968.00
2023-01-19T06:22:54.367Z,98958.00
2023-01-19T06:25:28.163Z,98954.00
2023-01-19T06:28:01.713Z,98959.00
2023-01-19T06:30:35.586Z,98960.00
2023-01-19T06:33:09.541Z,98970.00
2023-01-19T06:35:47.480Z,98970.00
2023-01-19T06:38:21.760Z,98968.00
2023-01-19T06:40:58.725Z,98978.00
2023-01-19T06:43:33.115Z,98978.00
2023-01-19T06:46:07.467Z,98985.00
2023-01-19T06:48:41.864Z,98990.00
2023-01-19T06:51:17.055Z,98988.00
2023-01-19T06:53:51.831Z,98984.00
2023-01-19T06:56:25.306Z,99002.00
2023-01-19T06:58:59.542Z,99009.00
2023-01-19T07:01:33.084Z,99015.00
2023-01-19T07:04:06.988Z,99014.00
2023-01-19T07:06:42.280Z,99011.00
2023-01-19T07:09:17.100Z,98999.00
2023-01-19T07:11:50.607Z,99026.00
2023-01-19T07:14:26.068Z,99031.00
2023-01-19T07:17:00.480Z,99027.00
2023-01-19T07:19:35.220Z,99037.00
2023-01-19T07:22:10.238Z,99039.00
2023-01-19T07:24:44.021Z,99057.00
2023-01-19T07:27:17.725Z,99053.00
2023-01-19T07:29:51.244Z,99048.00
2023-01-19T07:32:25.052Z,99055.00
2023-01-19T07:34:58.659Z,99053.00
2023-01-19T07:37:33.817Z,99064.00
2023-01-19T07:40:08.631Z,99061.00
2023-01-19T07:42:47.296Z,99058.00
2023-01-19T07:45:22.478Z,99073.00
2023-01-19T07:47:56.962Z,99081.00
2023-01-19T07:50:30.964Z,99070.00
2023-01-19T07:53:46.704Z,99079.00
2023-01-19T07:56:20.261Z,99079.00
2023-01-19T07:58:53.701Z,99090.00
2023-01-19T08:01:27.496Z,99097.00
2023-01-19T08:04:00.785Z,99103.00
2023-01-19T08:06:37.433Z,99109.00
2023-01-19T08:09:13.173Z,99108.00
2023-01-19T08:11:46.745Z,99118.00
2023-01-19T08:14:20.405Z,99115.00
2023-01-19T08:16:54.530Z,99115.00
2023-01-19T08:19:28.316Z,99130.00
2023-01-19T08:22:02.513Z,99136.00
2023-01-19T08:24:37.782Z,99132.00
2023-01-19T08:27:14.269Z,99138.00
2023-01-19T08:29:47.852Z,99129.00
2023-01-19T08:32:21.974Z,99146.00
2023-01-19T08:34:55.481Z,99145.00
2023-01-19T08:37:29.079Z,99154.00
2023-01-19T08:40:04.662Z,99155.00
2023-01-19T08:42:38.395Z,99164.00
2023-01-19T08:45:12.909Z,99157.00
2023-01-19T08:47:46.754Z,99178.00
2023-01-19T08:50:20.568Z,99164.00
2023-01-19T08:52:54.539Z,99169.00
2023-01-19T08:55:30.735Z,99179.00
2023-01-19T08:58:06.335Z,99176.00
2023-01-19T09:00:41.102Z,99192.00
2023-01-19T09:03:14.932Z,99190.00
2023-01-19T09:05:49.023Z,99190.00
2023-01-19T09:08:22.723Z,99197.00
2023-01-19T09:11:02.498Z,99195.00
2023-01-19T09:13:36.259Z,99206.00
2023-01-19T09:16:13.653Z,99204.00
2023-01-19T09:18:47.585Z,99210.00
2023-01-19T09:21:21.262Z,99216.00
2023-01-19T09:23:54.973Z,99220.00
2023-01-19T09:26:32.216Z,99226.00
2023-01-19T09:29:06.484Z,99221.00
2023-01-19T09:31:40.407Z,99227.00
2023-01-19T09:34:14.188Z,99209.00
2023-01-19T09:36:48.914Z,99235.00
2023-01-19T09:39:22.662Z,99238.00
2023-01-19T09:42:15.166Z,99238.00
2023-01-19T09:44:53.486Z,99240.00
2023-01-19T09:47:31.718Z,99234.00
2023-01-19T09:50:16.946Z,99252.00
2023-01-19T09:53:14.142Z,99254.00
2023-01-19T09:55:48.493Z,99256.00
2023-01-19T09:58:24.932Z,99264.00
2023-01-19T10:01:09.455Z,99258.00
2023-01-19T10:03:43.647Z,99255.00
2023-01-19T10:06:18.421Z,99260.00
2023-01-19T10:09:05.618Z,99266.00
2023-01-19T10:11:52.982Z,99271.00
2023-01-19T10:14:38.274Z,99263.00
2023-01-19T10:17:27.199Z,99273.00
2023-01-19T10:20:04.873Z,99291.00
2023-01-19T10:22:38.828Z,99286.00
2023-01-19T10:25:19.725Z,99294.00
2023-01-19T10:27:53.282Z,99296.00
2023-01-19T10:30:31.226Z,99295.00
2023-01-19T10:33:05.844Z,99292.00
2023-01-19T10:35:39.503Z,99305.00
2023-01-19T10:38:20.250Z,99304.00
2023-01-19T10:41:04.579Z,99310.00
2023-01-19T10:43:42.804Z,99274.00
2023-01-19T10:46:39.780Z,99310.00
2023-01-19T10:49:28.558Z,99312.00
2023-01-19T10:52:02.740Z,99312.00
2023-01-19T10:54:39.213Z,99313.00
2023-01-19T10:57:20.575Z,99319.00
2023-01-19T10:59:54.096Z,99313.00
2023-01-19T11:02:31.454Z,99311.00
2023-01-19T11:05:25.904Z,99317.00
2023-01-19T11:08:00.151Z,99318.00
2023-01-19T11:10:34.003Z,99300.00
2023-01-19T11:13:15.993Z,99307.00
2023-01-19T11:15:57.531Z,99317.00
2023-01-19T11:18:35.067Z,99323.00
2023-01-19T11:21:13.027Z,99324.00
2023-01-19T11:23:51.590Z,99321.00
2023-01-19T11:26:32.420Z,99320.00
2023-01-19T11:29:06.799Z,99320.00
2023-01-19T11:31:40.356Z,99322.00
2023-01-19T11:34:35.364Z,99318.00
2023-01-19T11:37:30.275Z,99320.00
2023-01-19T11:40:10.428Z,99313.00
2023-01-19T11:42:44.648Z,99322.00
2023-01-19T11:45:21.177Z,99306.00
2023-01-19T11:47:54.834Z,99329.00
2023-01-19T11:50:34.969Z,99313.00
2023-01-19T11:53:18.425Z,99324.00
2023-01-19T11:55:58.222Z,99316.00
2023-01-19T11:58:33.791Z,99320.00
2023-01-19T12:01:20.994Z,99313.00
2023-01-19T12:04:02.970Z,99322.00
2023-01-19T12:06:44.596Z,99320.00
2023-01-19T12:09:25.149Z,99327.00
2023-01-19T12:12:04.451Z,99321.00
2023-01-19T12:14:49.204Z,99327.00
2023-01-19T12:17:28.480Z,99325.00
2023-01-19T12:20:15.131Z,99321.00
2023-01-19T12:23:01.524Z,99318.00
2023-01-19T12:25:54.733Z,99324.00
2023-01-19T12:28:32.519Z,99325.00
2023-01-19T12:31:08.427Z,99328.00
2023-01-19T12:33:42.499Z,99323.00
2023-01-19T12:36:40.425Z,99328.00
2023-01-19T12:39:21.721Z,99325.00
2023-01-19T12:42:14.338Z,99325.00
2023-01-19T12:44:49.804Z,99331.00
2023-01-19T12:47:24.735Z,99328.00
2023-01-19T12:50:06.991Z,99334.00
2023-01-19T12:52:48.339Z,99338.00
2023-01-19T12:55:38.971Z,99331.00
2023-01-19T12:58:19.166Z,99330.00
2023-01-19T13:01:19.070Z,99333.00
2023-01-19T13:04:09.733Z,99340.00
2023-01-19T13:07:10.818Z,99343.00
2023-01-19T13:09:44.441Z,99341.00
2023-01-19T13:12:34.444Z,99339.00
2023-01-19T13:15:35.220Z,99342.00
2023-01-19T13:18:10.452Z,99324.00
2023-01-19T13:20:52.440Z,99333.00
2023-01-19T13:23:31.185Z,99334.00
2023-01-19T13:26:07.822Z,99342.00
2023-01-19T13:28:45.486Z,99343.00
2023-01-19T13:31:20.339Z,99343.00
2023-01-19T13:33:57.095Z,99342.00
2023-01-19T13:36:34.372Z,99341.00
2023-01-19T13:39:17.647Z,99347.00
2023-01-19T13:41:57.155Z,99343.00
2023-01-19T13:44:41.840Z,99342.00
2023-01-19T13:47:23.534Z,99353.00
2023-01-19T13:49:59.825Z,99353.00
2023-01-19T13:52:33.698Z,99359.00
2023-01-19T13:55:14.762Z,99355.00
2023-01-19T13:57:50.400Z,99367.00
2023-01-19T14:00:27.729Z,99372.00
2023-01-19T14:03:04.350Z,99377.00
2023-01-19T14:05:40.464Z,99374.00
2023-01-19T14:08:18.499Z,99357.00
2023-01-19T14:11:04.255Z,99382.00
2023-01-19T14:13:41.663Z,99377.00
2023-01-19T14:16:19.721Z,99374.00
2023-01-19T14:19:08.565Z,99383.00
2023-01-19T14:21:44.485Z,99386.00
2023-01-19T14:24:21.246Z,99385.00
2023-01-19T14:26:56.855Z,99384.00
2023-01-19T14:29:33.314Z,99392.00
2023-01-19T14:32:27.991Z,99388.00
2023-01-19T14:35:24.305Z,99394.00
2023-01-19T14:37:57.838Z,99394.00
2023-01-19T14:40:32.178Z,99395.00
2023-01-19T14:43:06.303Z,99395.00
2023-01-19T14:45:41.714Z,99394.00
2023-01-19T14:48:21.957Z,99396.00
2023-01-19T14:51:05.019Z,99399.00
2023-01-19T14:53:39.992Z,99400.00
2023-01-19T14:56:25.434Z,99402.00
2023-01-19T14:59:02.439Z,99403.00
2023-01-19T15:01:36.463Z,99417.00
2023-01-19T15:04:11.340Z,99409.00
2023-01-19T15:06:46.261Z,99411.00
2023-01-19T15:09:19.749Z,99402.00
2023-01-19T15:11:54.464Z,99413.00
2023-01-19T15:14:28.244Z,99413.00
2023-01-19T15:17:01.781Z,99421.00
2023-01-19T15:19:37.124Z,99418.00
2023-01-19T15:22:15.078Z,99416.00
2023-01-19T15:24:48.563Z,99420.00
2023-01-19T15:27:23.603Z,99418.00
2023-01-19T15:29:59.883Z,99428.00
2023-01-19T15:32:33.510Z,99424.00
2023-01-19T15:35:16.341Z,99422.00
2023-01-19T15:37:51.107Z,99429.00
2023-01-19T15:40:24.553Z,99432.00
2023-01-19T15:42:58.444Z,99430.00
2023-01-19T15:45:37.748Z,99439.00
2023-01-19T15:48:13.466Z,99435.00
2023-01-19T15:50:48.495Z,99445.00
2023-01-19T15:53:24.215Z,99436.00
2023-01-19T15:55:58.149Z,99443.00
2023-01-19T15:58:31.669Z,99446.00
2023-01-19T16:01:05.359Z,99451.00
2023-01-19T16:03:39.594Z,99463.00
2023-01-19T16:06:16.290Z,99462.00
2023-01-19T16:08:49.821Z,99460.00
2023-01-19T16:11:25.533Z,99465.00
2023-01-19T16:13:59.678Z,99469.00
2023-01-19T16:16:33.465Z,99471.00
2023-01-19T16:19:06.831Z,99466.00
2023-01-19T16:21:42.886Z,99473.00
2023-01-19T16:24:16.591Z,99476.00
2023-01-19T16:26:50.470Z,99474.00
2023-01-19T16:29:24.590Z,99476.00
2023-01-19T16:31:58.453Z,99474.00
2023-01-19T16:34:32.047Z,99482.00
2023-01-19T16:37:07.056Z,99481.00
2023-01-19T16:39:40.374Z,99474.00
2023-01-19T16:42:13.952Z,99485.00
2023-01-19T16:44:47.320Z,99490.00
2023-01-19T16:47:22.004Z,99487.00
2023-01-19T16:49:56.527Z,99487.00
2023-01-19T16:52:31.210Z,99496.00
2023-01-19T16:55:09.147Z,99493.00
2023-01-19T16:57:43.045Z,99501.00
2023-01-19T17:00:17.566Z,99501.00
2023-01-19T17:02:51.237Z,99505.00
2023-01-19T17:05:24.679Z,99503.00
2023-01-19T17:08:00.108Z,99515.00
2023-01-19T17:10:37.892Z,99519.00
2023-01-19T17:13:11.485Z,99520.00
2023-01-19T17:15:45.208Z,99519.00
2023-01-19T17:18:18.522Z,99518.00
2023-01-19T17:20:51.830Z,99521.00
2023-01-19T17:23:26.784Z,99522.00
2023-01-19T17:26:01.172Z,99522.00
2023-01-19T17:28:34.450Z,99522.00
2023-01-19T17:31:09.782Z,99519.00
2023-01-19T17:33:46.344Z,99526.00
2023-01-19T17:36:22.631Z,99526.00
2023-01-19T17:39:00.432Z,99523.00
2023-01-19T17:41:36.379Z,99529.00
2023-01-19T17:44:11.663Z,99420.00
2023-01-19T17:46:44.985Z,99526.00
2023-01-19T17:49:18.590Z,99539.00
2023-01-19T17:51:54.779Z,99530.00
2023-01-19T17:54:29.933Z,99537.00
2023-01-19T17:57:03.610Z,99530.00
2023-01-19T17:59:38.933Z,99545.00
2023-01-19T18:02:12.682Z,99543.00
2023-01-19T18:04:46.443Z,99524.00
2023-01-19T18:07:20.503Z,99535.00
2023-01-19T18:09:58.272Z,99541.00
2023-01-19T18:12:33.698Z,99549.00
2023-01-19T18:15:09.997Z,99542.00
2023-01-19T18:17:43.715Z,99506.00
2023-01-19T18:20:17.887Z,99549.00
2023-01-19T18:22:51.632Z,99541.00
2023-01-19T18:25:26.999Z,99546.00
2023-01-19T18:28:00.359Z,99533.00
2023-01-19T18:30:35.996Z,99539.00
2023-01-19T18:33:09.803Z,99544.00
2023-01-19T18:35:43.600Z,99544.00
2023-01-19T18:38:17.682Z,99548.00
2023-01-19T18:41:02.568Z,99544.00
2023-01-19T18:43:36.531Z,99555.00
2023-01-19T18:46:11.228Z,99554.00
2023-01-19T18:48:45.017Z,99556.00
2023-01-19T18:51:19.139Z,99552.00
2023-01-19T18:53:52.885Z,99530.00
2023-01-19T18:56:28.599Z,99553.00
2023-01-19T18:59:04.056Z,99541.00
2023-01-19T19:01:38.065Z,99564.00
2023-01-19T19:04:12.047Z,99560.00
2023-01-19T19:06:45.558Z,99556.00
2023-01-19T19:09:19.054Z,99560.00
2023-01-19T19:11:54.134Z,99570.00
2023-01-19T19:14:27.696Z,99563.00
2023-01-19T19:17:01.575Z,99573.00
2023-01-19T19:19:35.453Z,99564.00
2023-01-19T19:22:09.213Z,99563.00
2023-01-19T19:24:43.327Z,99567.00
2023-01-19T19:27:18.115Z,99565.00
2023-01-19T19:29:51.902Z,99570.00
2023-01-19T19:32:25.217Z,99575.00
2023-01-19T19:34:59.064Z,99574.00
2023-01-19T19:37:32.799Z,99575.00
2023-01-19T19:40:09.532Z,99585.00
2023-01-19T19:42:44.476Z,99579.00
2023-01-19T19:45:17.950Z,99582.00
2023-01-19T19:47:51.557Z,99585.00
2023-01-19T19:50:25.099Z,99588.00
2023-01-19T19:52:58.803Z,99592.00
2023-01-19T19:55:32.472Z,99587.00
2023-01-19T19:58:07.639Z,99590.00
2023-01-19T20:00:44.451Z,99592.00
2023-01-19T20:03:18.441Z,99590.00
2023-01-19T20:05:52.277Z,99595.00
2023-01-19T20:08:25.970Z,99597.00
2023-01-19T20:11:07.705Z,99592.00
2023-01-19T20:13:45.963Z,99606.00
2023-01-19T20:16:24.082Z,99603.00
2023-01-19T20:18:57.426Z,99608.00
2023-01-19T20:21:33.382Z,99605.00
2023-01-19T20:24:10.259Z,99616.00
2023-01-19T20:26:46.474Z,99605.00
2023-01-19T20:29:22.230Z,99616.00
2023-01-19T20:31:57.392Z,99597.00
2023-01-19T20:34:35.617Z,99625.00
2023-01-19T20:37:10.115Z,99629.00
2023-01-19T20:39:43.518Z,99620.00
2023-01-19T20:42:17.120Z,99628.00
2023-01-19T20:44:52.451Z,99636.00
2023-01-19T20:47:26.950Z,99639.00
2023-01-19T20:50:00.484Z,99641.00
2023-01-19T20:52:35.768Z,99644.00
2023-01-19T20:55:10.480Z,99640.00
2023-01-19T20:57:44.401Z,99649.00
2023-01-19T21:00:21.220Z,99657.00
2023-01-19T21:02:56.479Z,99654.00
2023-01-19T21:05:30.125Z,99654.00
2023-01-19T21:08:04.084Z,99661.00
2023-01-19T21:10:37.993Z,99656.00
2023-01-19T21:13:11.452Z,99661.00
2023-01-19T21:15:46.780Z,99649.00
2023-01-19T21:18:21.164Z,99666.00
2023-01-19T21:20:55.019Z,99670.00
2023-01-19T21:23:29.707Z,99678.00
2023-01-19T21:26:03.324Z,99677.00
2023-01-19T21:28:38.227Z,99680.00
2023-01-19T21:31:15.852Z,99689.00
2023-01-19T21:33:53.526Z,99688.00
2023-01-19T21:36:27.422Z,99690.00
2023-01-19T21:39:01.752Z,99700.00
2023-01-19T21:41:36.473Z,99701.00
2023-01-19T21:44:12.105Z,99706.00
2023-01-19T21:46:47.473Z,99708.00
2023-01-19T21:49:21.841Z,99710.00
2023-01-19T21:51:55.328Z,99709.00
2023-01-19T21:54:28.707Z,99721.00
2023-01-19T21:57:02.839Z,99712.00
2023-01-19T21:59:36.300Z,99720.00
2023-01-19T22:02:13.018Z,99716.00
2023-01-19T22:04:46.524Z,99728.00
2023-01-19T22:07:20.044Z,99727.00
2023-01-19T22:09:54.894Z,99735.00
2023-01-19T22:12:29.106Z,99731.00
2023-01-19T22:15:02.833Z,99740.00
2023-01-19T22:17:37.906Z,99744.00
2023-01-19T22:20:12.566Z,99739.00
2023-01-19T22:22:45.857Z,99739.00
2023-01-19T22:25:22.061Z,99746.00
2023-01-19T22:27:55.441Z,99741.00
2023-01-19T22:30:29.266Z,99728.00
2023-01-19T22:33:04.397Z,99738.00
2023-01-19T22:35:37.679Z,99746.00
2023-01-19T22:38:11.260Z,99749.00
2023-01-19T22:40:44.985Z,99756.00
2023-01-19T22:43:18.627Z,99753.00
2023-01-19T22:45:52.401Z,99761.00
2023-01-19T22:48:28.585Z,99758.00
2023-01-19T22:51:03.299Z,99761.00
2023-01-19T22:53:36.858Z,99759.00
2023-01-19T22:56:15.977Z,99762.00
2023-01-19T22:58:50.008Z,99761.00
2023-01-19T23:01:25.764Z,99762.00
2023-01-19T23:04:02.490Z,99761.00
2023-01-19T23:06:38.366Z,99762.00
2023-01-19T23:09:15.659Z,99757.00
2023-01-19T23:11:50.705Z,99762.00
2023-01-19T23:14:24.336Z,99762.00
2023-01-19T23:16:58.203Z,99757.00
2023-01-19T23:19:33.581Z,99770.00
2023-01-19T23:22:06.910Z,99770.00
2023-01-19T23:24:40.919Z,99758.00
2023-01-19T23:27:14.489Z,99779.00
2023-01-19T23:29:47.821Z,99790.00
2023-01-19T23:32:22.239Z,99764.00
2023-01-19T23:34:57.561Z,99786.00
2023-01-19T23:37:30.970Z,99788.00
2023-01-19T23:40:04.903Z,99792.00
2023-01-19T23:42:38.763Z,99786.00
2023-01-19T23:45:12.993Z,99785.00
2023-01-19T23:47:46.835Z,99786.00
2023-01-19T23:50:21.847Z,99799.00
2023-01-19T23:52:55.179Z,99796.00
2023-01-19T23:55:29.408Z,99796.00
2023-01-19T23:58:02.772Z,99800.00
